sensor_id;sensor_type;location;lat;lon;timestamp;P1;durP1;ratioP1;P2;durP2;ratioP2
86099;SDS011;76724;47.496;19.064;2024-02-28T00:00:29;17.77;;;17.77;;
86099;SDS011;76724;47.496;19.064;2024-02-28T00:01:03;17.17;;;17.17;;
86099;SDS011;76724;47.496;19.064;2024-02-28T00:01:38;17.23;;;17.23;;
86099;SDS011;76724;47.496;19.064;2024-02-28T00:02:12;17.67;;;17.67;;
86099;SDS011;76724;47.496;19.064;2024-02-28T00:02:47;17.83;;;17.83;;
86099;SDS011;76724;47.496;19.064;2024-02-28T00:03:21;17.50;;;17.50;;
86099;SDS011;76724;47.496;19.064;2024-02-28T00:03:57;17.47;;;17.47;;
86099;SDS011;76724;47.496;19.064;2024-02-28T00:04:32;17.70;;;17.70;;
86099;SDS011;76724;47.496;19.064;2024-02-28T00:05:06;17.83;;;17.83;;
86099;SDS011;76724;47.496;19.064;2024-02-28T00:05:41;17.70;;;17.70;;
86099;SDS011;76724;47.496;19.064;2024-02-28T00:06:18;17.43;;;17.37;;
86099;SDS011;76724;47.496;19.064;2024-02-28T00:06:52;17.50;;;17.50;;
86099;SDS011;76724;47.496;19.064;2024-02-28T00:07:26;17.97;;;17.97;;
86099;SDS011;76724;47.496;19.064;2024-02-28T00:08:01;16.27;;;16.27;;
86099;SDS011;76724;47.496;19.064;2024-02-28T00:08:35;15.33;;;15.33;;
86099;SDS011;76724;47.496;19.064;2024-02-28T00:09:10;16.00;;;16.00;;
86099;SDS011;76724;47.496;19.064;2024-02-28T00:09:45;17.70;;;17.70;;
86099;SDS011;76724;47.496;19.064;2024-02-28T00:10:19;16.37;;;16.37;;
86099;SDS011;76724;47.496;19.064;2024-02-28T00:10:54;16.20;;;16.20;;
86099;SDS011;76724;47.496;19.064;2024-02-28T00:11:28;18.03;;;18.03;;
86099;SDS011;76724;47.496;19.064;2024-02-28T00:12:03;18.17;;;18.17;;
86099;SDS011;76724;47.496;19.064;2024-02-28T00:12:38;17.53;;;17.53;;
86099;SDS011;76724;47.496;19.064;2024-02-28T00:13:12;16.47;;;16.47;;
86099;SDS011;76724;47.496;19.064;2024-02-28T00:13:49;17.70;;;17.70;;
86099;SDS011;76724;47.496;19.064;2024-02-28T00:14:23;17.33;;;17.33;;
86099;SDS011;76724;47.496;19.064;2024-02-28T00:14:58;17.17;;;17.17;;
86099;SDS011;76724;47.496;19.064;2024-02-28T00:15:32;18.10;;;18.10;;
86099;SDS011;76724;47.496;19.064;2024-02-28T00:16:06;17.10;;;17.10;;
86099;SDS011;76724;47.496;19.064;2024-02-28T00:16:41;17.03;;;17.03;;
86099;SDS011;76724;47.496;19.064;2024-02-28T00:17:16;17.27;;;17.27;;
86099;SDS011;76724;47.496;19.064;2024-02-28T00:17:54;18.40;;;18.40;;
86099;SDS011;76724;47.496;19.064;2024-02-28T00:18:28;18.00;;;18.00;;
86099;SDS011;76724;47.496;19.064;2024-02-28T00:19:05;16.07;;;16.07;;
86099;SDS011;76724;47.496;19.064;2024-02-28T00:19:39;17.47;;;17.47;;
86099;SDS011;76724;47.496;19.064;2024-02-28T00:20:14;18.23;;;18.23;;
86099;SDS011;76724;47.496;19.064;2024-02-28T00:20:48;17.97;;;17.97;;
86099;SDS011;76724;47.496;19.064;2024-02-28T00:21:22;18.37;;;18.37;;
86099;SDS011;76724;47.496;19.064;2024-02-28T00:21:57;18.73;;;18.73;;
86099;SDS011;76724;47.496;19.064;2024-02-28T00:22:35;17.53;;;17.53;;
86099;SDS011;76724;47.496;19.064;2024-02-28T00:23:12;16.87;;;16.87;;
86099;SDS011;76724;47.496;19.064;2024-02-28T00:23:47;17.97;;;17.97;;
86099;SDS011;76724;47.496;19.064;2024-02-28T00:24:21;17.17;;;17.17;;
86099;SDS011;76724;47.496;19.064;2024-02-28T00:24:56;18.80;;;18.80;;
86099;SDS011;76724;47.496;19.064;2024-02-28T00:25:30;18.47;;;18.47;;
86099;SDS011;76724;47.496;19.064;2024-02-28T00:26:04;17.57;;;17.57;;
86099;SDS011;76724;47.496;19.064;2024-02-28T00:26:42;16.27;;;16.27;;
86099;SDS011;76724;47.496;19.064;2024-02-28T00:27:17;17.30;;;17.30;;
86099;SDS011;76724;47.496;19.064;2024-02-28T00:27:51;17.63;;;17.63;;
86099;SDS011;76724;47.496;19.064;2024-02-28T00:28:26;18.00;;;18.00;;
86099;SDS011;76724;47.496;19.064;2024-02-28T00:29:00;17.93;;;17.93;;
86099;SDS011;76724;47.496;19.064;2024-02-28T00:29:35;18.10;;;18.10;;
86099;SDS011;76724;47.496;19.064;2024-02-28T00:30:09;17.47;;;17.47;;
86099;SDS011;76724;47.496;19.064;2024-02-28T00:30:43;18.37;;;18.37;;
86099;SDS011;76724;47.496;19.064;2024-02-28T00:31:18;18.00;;;18.00;;
86099;SDS011;76724;47.496;19.064;2024-02-28T00:31:52;17.40;;;17.40;;
86099;SDS011;76724;47.496;19.064;2024-02-28T00:32:26;19.27;;;19.27;;
86099;SDS011;76724;47.496;19.064;2024-02-28T00:33:00;17.77;;;17.77;;
86099;SDS011;76724;47.496;19.064;2024-02-28T00:33:35;18.00;;;18.00;;
86099;SDS011;76724;47.496;19.064;2024-02-28T00:34:09;17.17;;;17.17;;
86099;SDS011;76724;47.496;19.064;2024-02-28T00:34:44;17.80;;;17.80;;
86099;SDS011;76724;47.496;19.064;2024-02-28T00:35:18;18.07;;;18.07;;
86099;SDS011;76724;47.496;19.064;2024-02-28T00:35:53;17.00;;;17.00;;
86099;SDS011;76724;47.496;19.064;2024-02-28T00:36:27;17.70;;;17.70;;
86099;SDS011;76724;47.496;19.064;2024-02-28T00:37:12;17.73;;;17.73;;
86099;SDS011;76724;47.496;19.064;2024-02-28T00:37:46;17.77;;;17.77;;
86099;SDS011;76724;47.496;19.064;2024-02-28T00:38:21;17.23;;;17.23;;
86099;SDS011;76724;47.496;19.064;2024-02-28T00:38:56;17.70;;;17.70;;
86099;SDS011;76724;47.496;19.064;2024-02-28T00:39:30;17.47;;;17.47;;
86099;SDS011;76724;47.496;19.064;2024-02-28T00:40:05;17.63;;;17.63;;
86099;SDS011;76724;47.496;19.064;2024-02-28T00:40:39;17.77;;;17.77;;
86099;SDS011;76724;47.496;19.064;2024-02-28T00:41:14;18.00;;;18.00;;
86099;SDS011;76724;47.496;19.064;2024-02-28T00:41:48;18.47;;;18.47;;
86099;SDS011;76724;47.496;19.064;2024-02-28T00:42:23;17.97;;;17.97;;
86099;SDS011;76724;47.496;19.064;2024-02-28T00:42:58;17.73;;;17.73;;
86099;SDS011;76724;47.496;19.064;2024-02-28T00:43:32;17.70;;;17.70;;
86099;SDS011;76724;47.496;19.064;2024-02-28T00:44:07;18.17;;;18.17;;
86099;SDS011;76724;47.496;19.064;2024-02-28T00:44:41;17.77;;;17.77;;
86099;SDS011;76724;47.496;19.064;2024-02-28T00:45:16;18.00;;;18.00;;
86099;SDS011;76724;47.496;19.064;2024-02-28T00:45:50;18.27;;;18.27;;
86099;SDS011;76724;47.496;19.064;2024-02-28T00:46:25;18.17;;;18.17;;
86099;SDS011;76724;47.496;19.064;2024-02-28T00:46:59;17.90;;;17.90;;
86099;SDS011;76724;47.496;19.064;2024-02-28T00:47:33;18.83;;;18.83;;
86099;SDS011;76724;47.496;19.064;2024-02-28T00:48:08;18.33;;;18.33;;
86099;SDS011;76724;47.496;19.064;2024-02-28T00:48:43;18.33;;;18.33;;
86099;SDS011;76724;47.496;19.064;2024-02-28T00:49:17;18.43;;;18.43;;
86099;SDS011;76724;47.496;19.064;2024-02-28T00:49:52;18.67;;;18.67;;
86099;SDS011;76724;47.496;19.064;2024-02-28T00:50:26;18.40;;;18.40;;
86099;SDS011;76724;47.496;19.064;2024-02-28T00:51:01;17.33;;;17.33;;
86099;SDS011;76724;47.496;19.064;2024-02-28T00:51:35;18.10;;;18.10;;
86099;SDS011;76724;47.496;19.064;2024-02-28T00:52:11;18.23;;;18.23;;
86099;SDS011;76724;47.496;19.064;2024-02-28T00:52:45;17.73;;;17.73;;
86099;SDS011;76724;47.496;19.064;2024-02-28T00:53:20;18.70;;;18.70;;
86099;SDS011;76724;47.496;19.064;2024-02-28T00:53:54;17.87;;;17.87;;
86099;SDS011;76724;47.496;19.064;2024-02-28T00:54:29;18.23;;;18.23;;
86099;SDS011;76724;47.496;19.064;2024-02-28T00:55:03;18.27;;;18.27;;
86099;SDS011;76724;47.496;19.064;2024-02-28T00:55:38;17.60;;;17.60;;
86099;SDS011;76724;47.496;19.064;2024-02-28T00:56:13;17.07;;;17.07;;
86099;SDS011;76724;47.496;19.064;2024-02-28T00:56:47;18.40;;;18.40;;
86099;SDS011;76724;47.496;19.064;2024-02-28T00:57:21;19.50;;;19.50;;
86099;SDS011;76724;47.496;19.064;2024-02-28T00:57:56;19.23;;;19.17;;
86099;SDS011;76724;47.496;19.064;2024-02-28T00:58:30;18.27;;;17.87;;
86099;SDS011;76724;47.496;19.064;2024-02-28T00:59:05;17.83;;;17.83;;
86099;SDS011;76724;47.496;19.064;2024-02-28T00:59:40;18.77;;;18.77;;
86099;SDS011;76724;47.496;19.064;2024-02-28T01:00:16;19.23;;;19.23;;
86099;SDS011;76724;47.496;19.064;2024-02-28T01:00:51;19.27;;;19.27;;
86099;SDS011;76724;47.496;19.064;2024-02-28T01:01:25;18.77;;;18.77;;
86099;SDS011;76724;47.496;19.064;2024-02-28T01:02:00;17.67;;;17.67;;
86099;SDS011;76724;47.496;19.064;2024-02-28T01:02:34;18.13;;;18.13;;
86099;SDS011;76724;47.496;19.064;2024-02-28T01:03:08;18.33;;;18.33;;
86099;SDS011;76724;47.496;19.064;2024-02-28T01:03:45;19.07;;;19.07;;
86099;SDS011;76724;47.496;19.064;2024-02-28T01:04:19;18.80;;;18.80;;
86099;SDS011;76724;47.496;19.064;2024-02-28T01:04:53;19.10;;;19.07;;
86099;SDS011;76724;47.496;19.064;2024-02-28T01:05:28;16.70;;;16.70;;
86099;SDS011;76724;47.496;19.064;2024-02-28T01:06:02;18.50;;;18.50;;
86099;SDS011;76724;47.496;19.064;2024-02-28T01:06:38;18.80;;;18.80;;
86099;SDS011;76724;47.496;19.064;2024-02-28T01:07:13;18.67;;;18.67;;
86099;SDS011;76724;47.496;19.064;2024-02-28T01:07:47;19.80;;;19.80;;
86099;SDS011;76724;47.496;19.064;2024-02-28T01:08:21;18.27;;;18.27;;
86099;SDS011;76724;47.496;19.064;2024-02-28T01:08:56;18.60;;;18.60;;
86099;SDS011;76724;47.496;19.064;2024-02-28T01:09:30;18.63;;;18.63;;
86099;SDS011;76724;47.496;19.064;2024-02-28T01:10:05;17.43;;;17.43;;
86099;SDS011;76724;47.496;19.064;2024-02-28T01:10:41;18.33;;;18.33;;
86099;SDS011;76724;47.496;19.064;2024-02-28T01:11:15;18.50;;;18.50;;
86099;SDS011;76724;47.496;19.064;2024-02-28T01:11:50;18.57;;;18.57;;
86099;SDS011;76724;47.496;19.064;2024-02-28T01:12:24;19.13;;;19.13;;
86099;SDS011;76724;47.496;19.064;2024-02-28T01:12:58;18.83;;;18.77;;
86099;SDS011;76724;47.496;19.064;2024-02-28T01:13:33;18.27;;;18.27;;
86099;SDS011;76724;47.496;19.064;2024-02-28T01:14:07;17.77;;;17.77;;
86099;SDS011;76724;47.496;19.064;2024-02-28T01:14:41;19.07;;;19.07;;
86099;SDS011;76724;47.496;19.064;2024-02-28T01:15:16;18.33;;;18.33;;
86099;SDS011;76724;47.496;19.064;2024-02-28T01:15:51;18.63;;;18.63;;
86099;SDS011;76724;47.496;19.064;2024-02-28T01:16:25;18.90;;;18.90;;
86099;SDS011;76724;47.496;19.064;2024-02-28T01:16:59;18.73;;;18.73;;
86099;SDS011;76724;47.496;19.064;2024-02-28T01:17:34;18.47;;;18.47;;
86099;SDS011;76724;47.496;19.064;2024-02-28T01:18:09;18.93;;;18.93;;
86099;SDS011;76724;47.496;19.064;2024-02-28T01:18:44;20.27;;;20.27;;
86099;SDS011;76724;47.496;19.064;2024-02-28T01:19:18;19.53;;;19.53;;
86099;SDS011;76724;47.496;19.064;2024-02-28T01:19:52;18.27;;;18.27;;
86099;SDS011;76724;47.496;19.064;2024-02-28T01:20:27;18.30;;;18.30;;
86099;SDS011;76724;47.496;19.064;2024-02-28T01:21:01;19.17;;;19.17;;
86099;SDS011;76724;47.496;19.064;2024-02-28T01:21:36;19.13;;;19.13;;
86099;SDS011;76724;47.496;19.064;2024-02-28T01:22:10;19.13;;;19.13;;
86099;SDS011;76724;47.496;19.064;2024-02-28T01:22:44;18.60;;;18.60;;
86099;SDS011;76724;47.496;19.064;2024-02-28T01:23:19;18.70;;;18.70;;
86099;SDS011;76724;47.496;19.064;2024-02-28T01:23:54;18.53;;;18.53;;
86099;SDS011;76724;47.496;19.064;2024-02-28T01:24:29;18.67;;;18.67;;
86099;SDS011;76724;47.496;19.064;2024-02-28T01:25:03;18.97;;;18.97;;
86099;SDS011;76724;47.496;19.064;2024-02-28T01:25:37;17.83;;;17.83;;
86099;SDS011;76724;47.496;19.064;2024-02-28T01:26:12;18.13;;;18.13;;
86099;SDS011;76724;47.496;19.064;2024-02-28T01:26:46;19.60;;;19.13;;
86099;SDS011;76724;47.496;19.064;2024-02-28T01:27:20;18.73;;;18.30;;
86099;SDS011;76724;47.496;19.064;2024-02-28T01:27:55;18.47;;;18.47;;
86099;SDS011;76724;47.496;19.064;2024-02-28T01:28:32;19.10;;;19.10;;
86099;SDS011;76724;47.496;19.064;2024-02-28T01:29:07;18.57;;;18.30;;
86099;SDS011;76724;47.496;19.064;2024-02-28T01:29:41;18.80;;;18.80;;
86099;SDS011;76724;47.496;19.064;2024-02-28T01:30:15;19.83;;;19.83;;
86099;SDS011;76724;47.496;19.064;2024-02-28T01:30:50;18.63;;;18.63;;
86099;SDS011;76724;47.496;19.064;2024-02-28T01:31:24;18.20;;;18.13;;
86099;SDS011;76724;47.496;19.064;2024-02-28T01:31:59;20.27;;;20.27;;
86099;SDS011;76724;47.496;19.064;2024-02-28T01:32:33;19.97;;;19.97;;
86099;SDS011;76724;47.496;19.064;2024-02-28T01:33:07;17.97;;;17.97;;
86099;SDS011;76724;47.496;19.064;2024-02-28T01:33:41;18.30;;;18.30;;
86099;SDS011;76724;47.496;19.064;2024-02-28T01:34:16;19.73;;;19.73;;
86099;SDS011;76724;47.496;19.064;2024-02-28T01:34:50;18.67;;;18.67;;
86099;SDS011;76724;47.496;19.064;2024-02-28T01:35:25;18.97;;;18.97;;
86099;SDS011;76724;47.496;19.064;2024-02-28T01:35:59;19.07;;;19.07;;
86099;SDS011;76724;47.496;19.064;2024-02-28T01:36:33;18.97;;;18.97;;
86099;SDS011;76724;47.496;19.064;2024-02-28T01:37:07;19.00;;;19.00;;
86099;SDS011;76724;47.496;19.064;2024-02-28T01:37:42;19.03;;;19.03;;
86099;SDS011;76724;47.496;19.064;2024-02-28T01:38:16;19.60;;;19.60;;
86099;SDS011;76724;47.496;19.064;2024-02-28T01:38:51;19.20;;;19.20;;
86099;SDS011;76724;47.496;19.064;2024-02-28T01:39:25;19.87;;;19.87;;
86099;SDS011;76724;47.496;19.064;2024-02-28T01:39:59;19.50;;;19.50;;
86099;SDS011;76724;47.496;19.064;2024-02-28T01:40:34;19.43;;;19.43;;
86099;SDS011;76724;47.496;19.064;2024-02-28T01:41:08;19.87;;;19.87;;
86099;SDS011;76724;47.496;19.064;2024-02-28T01:41:50;19.67;;;19.67;;
86099;SDS011;76724;47.496;19.064;2024-02-28T01:42:25;20.87;;;20.87;;
86099;SDS011;76724;47.496;19.064;2024-02-28T01:43:18;20.17;;;20.17;;
86099;SDS011;76724;47.496;19.064;2024-02-28T01:43:52;19.57;;;19.57;;
86099;SDS011;76724;47.496;19.064;2024-02-28T01:44:27;19.53;;;19.53;;
86099;SDS011;76724;47.496;19.064;2024-02-28T01:45:02;19.20;;;19.20;;
86099;SDS011;76724;47.496;19.064;2024-02-28T01:45:36;20.03;;;20.03;;
86099;SDS011;76724;47.496;19.064;2024-02-28T01:46:21;20.93;;;20.93;;
86099;SDS011;76724;47.496;19.064;2024-02-28T01:46:58;19.57;;;19.57;;
86099;SDS011;76724;47.496;19.064;2024-02-28T01:47:32;19.30;;;19.30;;
86099;SDS011;76724;47.496;19.064;2024-02-28T01:48:07;18.80;;;18.80;;
86099;SDS011;76724;47.496;19.064;2024-02-28T01:48:45;19.00;;;19.00;;
86099;SDS011;76724;47.496;19.064;2024-02-28T01:49:20;18.50;;;18.50;;
86099;SDS011;76724;47.496;19.064;2024-02-28T01:49:54;19.13;;;19.13;;
86099;SDS011;76724;47.496;19.064;2024-02-28T01:50:28;19.50;;;19.50;;
86099;SDS011;76724;47.496;19.064;2024-02-28T01:51:03;19.63;;;19.63;;
86099;SDS011;76724;47.496;19.064;2024-02-28T01:51:37;19.17;;;19.17;;
86099;SDS011;76724;47.496;19.064;2024-02-28T01:52:12;20.13;;;20.13;;
86099;SDS011;76724;47.496;19.064;2024-02-28T01:52:48;20.13;;;20.13;;
86099;SDS011;76724;47.496;19.064;2024-02-28T01:53:22;20.17;;;20.17;;
86099;SDS011;76724;47.496;19.064;2024-02-28T01:53:56;19.77;;;19.77;;
86099;SDS011;76724;47.496;19.064;2024-02-28T01:54:33;20.37;;;20.37;;
86099;SDS011;76724;47.496;19.064;2024-02-28T01:55:08;20.80;;;20.80;;
86099;SDS011;76724;47.496;19.064;2024-02-28T01:55:43;19.73;;;19.73;;
86099;SDS011;76724;47.496;19.064;2024-02-28T01:56:18;20.57;;;20.57;;
86099;SDS011;76724;47.496;19.064;2024-02-28T01:56:54;21.67;;;21.67;;
86099;SDS011;76724;47.496;19.064;2024-02-28T01:57:28;21.13;;;21.13;;
86099;SDS011;76724;47.496;19.064;2024-02-28T01:58:04;19.57;;;19.57;;
86099;SDS011;76724;47.496;19.064;2024-02-28T01:58:39;19.43;;;19.43;;
86099;SDS011;76724;47.496;19.064;2024-02-28T01:59:14;19.70;;;19.67;;
86099;SDS011;76724;47.496;19.064;2024-02-28T01:59:49;19.97;;;19.97;;
86099;SDS011;76724;47.496;19.064;2024-02-28T02:00:24;19.70;;;19.70;;
86099;SDS011;76724;47.496;19.064;2024-02-28T02:01:01;20.07;;;20.07;;
86099;SDS011;76724;47.496;19.064;2024-02-28T02:01:37;20.33;;;20.33;;
86099;SDS011;76724;47.496;19.064;2024-02-28T02:02:12;20.00;;;20.00;;
86099;SDS011;76724;47.496;19.064;2024-02-28T02:02:46;20.07;;;20.07;;
86099;SDS011;76724;47.496;19.064;2024-02-28T02:03:21;19.50;;;19.50;;
86099;SDS011;76724;47.496;19.064;2024-02-28T02:03:55;19.83;;;19.83;;
86099;SDS011;76724;47.496;19.064;2024-02-28T02:04:30;19.97;;;19.97;;
86099;SDS011;76724;47.496;19.064;2024-02-28T02:05:04;19.33;;;19.33;;
86099;SDS011;76724;47.496;19.064;2024-02-28T02:05:41;18.83;;;18.83;;
86099;SDS011;76724;47.496;19.064;2024-02-28T02:06:15;19.53;;;19.53;;
86099;SDS011;76724;47.496;19.064;2024-02-28T02:06:50;20.07;;;20.07;;
86099;SDS011;76724;47.496;19.064;2024-02-28T02:07:28;19.40;;;19.40;;
86099;SDS011;76724;47.496;19.064;2024-02-28T02:08:02;18.77;;;18.77;;
86099;SDS011;76724;47.496;19.064;2024-02-28T02:08:38;19.13;;;19.13;;
86099;SDS011;76724;47.496;19.064;2024-02-28T02:09:13;18.87;;;18.87;;
86099;SDS011;76724;47.496;19.064;2024-02-28T02:09:47;20.00;;;20.00;;
86099;SDS011;76724;47.496;19.064;2024-02-28T02:10:21;21.30;;;21.30;;
86099;SDS011;76724;47.496;19.064;2024-02-28T02:10:57;20.77;;;20.77;;
86099;SDS011;76724;47.496;19.064;2024-02-28T02:11:31;19.03;;;19.03;;
86099;SDS011;76724;47.496;19.064;2024-02-28T02:12:06;19.20;;;19.03;;
86099;SDS011;76724;47.496;19.064;2024-02-28T02:12:41;19.53;;;19.53;;
86099;SDS011;76724;47.496;19.064;2024-02-28T02:13:15;19.50;;;19.50;;
86099;SDS011;76724;47.496;19.064;2024-02-28T02:13:50;20.20;;;20.20;;
86099;SDS011;76724;47.496;19.064;2024-02-28T02:14:25;20.77;;;20.77;;
86099;SDS011;76724;47.496;19.064;2024-02-28T02:15:00;20.43;;;20.43;;
86099;SDS011;76724;47.496;19.064;2024-02-28T02:15:34;20.13;;;20.13;;
86099;SDS011;76724;47.496;19.064;2024-02-28T02:16:08;20.00;;;20.00;;
86099;SDS011;76724;47.496;19.064;2024-02-28T02:16:42;19.57;;;19.57;;
86099;SDS011;76724;47.496;19.064;2024-02-28T02:17:17;19.23;;;19.23;;
86099;SDS011;76724;47.496;19.064;2024-02-28T02:17:51;19.57;;;19.57;;
86099;SDS011;76724;47.496;19.064;2024-02-28T02:18:26;19.87;;;19.87;;
86099;SDS011;76724;47.496;19.064;2024-02-28T02:19:00;20.07;;;20.07;;
86099;SDS011;76724;47.496;19.064;2024-02-28T02:19:35;19.93;;;19.93;;
86099;SDS011;76724;47.496;19.064;2024-02-28T02:20:10;19.27;;;19.27;;
86099;SDS011;76724;47.496;19.064;2024-02-28T02:20:52;19.93;;;19.93;;
86099;SDS011;76724;47.496;19.064;2024-02-28T02:21:41;19.53;;;19.53;;
86099;SDS011;76724;47.496;19.064;2024-02-28T02:22:23;19.90;;;19.87;;
86099;SDS011;76724;47.496;19.064;2024-02-28T02:23:03;20.43;;;20.43;;
86099;SDS011;76724;47.496;19.064;2024-02-28T02:23:38;20.83;;;20.83;;
86099;SDS011;76724;47.496;19.064;2024-02-28T02:24:15;19.63;;;19.63;;
86099;SDS011;76724;47.496;19.064;2024-02-28T02:24:49;19.97;;;19.97;;
86099;SDS011;76724;47.496;19.064;2024-02-28T02:25:23;18.90;;;18.90;;
86099;SDS011;76724;47.496;19.064;2024-02-28T02:25:57;19.13;;;19.13;;
86099;SDS011;76724;47.496;19.064;2024-02-28T02:26:32;20.13;;;20.13;;
86099;SDS011;76724;47.496;19.064;2024-02-28T02:27:06;19.00;;;19.00;;
86099;SDS011;76724;47.496;19.064;2024-02-28T02:27:41;19.87;;;19.87;;
86099;SDS011;76724;47.496;19.064;2024-02-28T02:28:15;19.03;;;19.03;;
86099;SDS011;76724;47.496;19.064;2024-02-28T02:28:50;19.60;;;19.60;;
86099;SDS011;76724;47.496;19.064;2024-02-28T02:29:24;19.53;;;19.50;;
86099;SDS011;76724;47.496;19.064;2024-02-28T02:29:58;18.80;;;18.80;;
86099;SDS011;76724;47.496;19.064;2024-02-28T02:30:33;20.03;;;20.03;;
86099;SDS011;76724;47.496;19.064;2024-02-28T02:31:07;20.83;;;20.83;;
86099;SDS011;76724;47.496;19.064;2024-02-28T02:31:42;21.60;;;21.13;;
86099;SDS011;76724;47.496;19.064;2024-02-28T02:32:16;21.33;;;21.00;;
86099;SDS011;76724;47.496;19.064;2024-02-28T02:32:51;21.00;;;20.80;;
86099;SDS011;76724;47.496;19.064;2024-02-28T02:33:25;20.20;;;20.13;;
86099;SDS011;76724;47.496;19.064;2024-02-28T02:34:00;20.47;;;20.47;;
86099;SDS011;76724;47.496;19.064;2024-02-28T02:34:34;20.80;;;20.80;;
86099;SDS011;76724;47.496;19.064;2024-02-28T02:35:09;20.67;;;20.67;;
86099;SDS011;76724;47.496;19.064;2024-02-28T02:35:43;20.23;;;20.23;;
86099;SDS011;76724;47.496;19.064;2024-02-28T02:36:18;19.77;;;19.77;;
86099;SDS011;76724;47.496;19.064;2024-02-28T02:36:52;20.27;;;20.27;;
86099;SDS011;76724;47.496;19.064;2024-02-28T02:37:27;20.73;;;20.73;;
86099;SDS011;76724;47.496;19.064;2024-02-28T02:38:01;20.80;;;20.80;;
86099;SDS011;76724;47.496;19.064;2024-02-28T02:38:36;19.67;;;19.67;;
86099;SDS011;76724;47.496;19.064;2024-02-28T02:39:10;19.73;;;19.73;;
86099;SDS011;76724;47.496;19.064;2024-02-28T02:39:45;20.80;;;20.80;;
86099;SDS011;76724;47.496;19.064;2024-02-28T02:40:19;21.47;;;21.47;;
86099;SDS011;76724;47.496;19.064;2024-02-28T02:40:53;20.50;;;20.50;;
86099;SDS011;76724;47.496;19.064;2024-02-28T02:41:27;19.57;;;19.57;;
86099;SDS011;76724;47.496;19.064;2024-02-28T02:42:02;20.00;;;20.00;;
86099;SDS011;76724;47.496;19.064;2024-02-28T02:42:36;19.17;;;19.17;;
86099;SDS011;76724;47.496;19.064;2024-02-28T02:43:11;20.40;;;20.40;;
86099;SDS011;76724;47.496;19.064;2024-02-28T02:43:45;20.43;;;20.43;;
86099;SDS011;76724;47.496;19.064;2024-02-28T02:44:19;19.40;;;19.40;;
86099;SDS011;76724;47.496;19.064;2024-02-28T02:44:54;19.40;;;19.40;;
86099;SDS011;76724;47.496;19.064;2024-02-28T02:45:28;19.57;;;19.57;;
86099;SDS011;76724;47.496;19.064;2024-02-28T02:46:03;19.67;;;19.67;;
86099;SDS011;76724;47.496;19.064;2024-02-28T02:46:37;20.00;;;20.00;;
86099;SDS011;76724;47.496;19.064;2024-02-28T02:47:12;19.57;;;19.57;;
86099;SDS011;76724;47.496;19.064;2024-02-28T02:47:47;20.43;;;20.43;;
86099;SDS011;76724;47.496;19.064;2024-02-28T02:48:21;19.43;;;19.43;;
86099;SDS011;76724;47.496;19.064;2024-02-28T02:48:55;19.80;;;19.80;;
86099;SDS011;76724;47.496;19.064;2024-02-28T02:49:30;21.43;;;21.43;;
86099;SDS011;76724;47.496;19.064;2024-02-28T02:50:05;20.20;;;20.20;;
86099;SDS011;76724;47.496;19.064;2024-02-28T02:50:39;20.03;;;20.03;;
86099;SDS011;76724;47.496;19.064;2024-02-28T02:51:13;19.60;;;19.60;;
86099;SDS011;76724;47.496;19.064;2024-02-28T02:51:48;19.40;;;19.40;;
86099;SDS011;76724;47.496;19.064;2024-02-28T02:52:22;20.63;;;20.63;;
86099;SDS011;76724;47.496;19.064;2024-02-28T02:52:57;20.10;;;20.10;;
86099;SDS011;76724;47.496;19.064;2024-02-28T02:53:31;20.57;;;20.53;;
86099;SDS011;76724;47.496;19.064;2024-02-28T02:54:05;20.17;;;20.17;;
86099;SDS011;76724;47.496;19.064;2024-02-28T02:54:39;20.20;;;20.20;;
86099;SDS011;76724;47.496;19.064;2024-02-28T02:55:14;20.77;;;20.77;;
86099;SDS011;76724;47.496;19.064;2024-02-28T02:55:49;19.27;;;19.27;;
86099;SDS011;76724;47.496;19.064;2024-02-28T02:56:23;21.07;;;21.07;;
86099;SDS011;76724;47.496;19.064;2024-02-28T02:56:57;20.77;;;20.77;;
86099;SDS011;76724;47.496;19.064;2024-02-28T02:57:31;19.83;;;19.83;;
86099;SDS011;76724;47.496;19.064;2024-02-28T02:58:07;19.53;;;19.53;;
86099;SDS011;76724;47.496;19.064;2024-02-28T02:58:41;20.53;;;20.53;;
86099;SDS011;76724;47.496;19.064;2024-02-28T02:59:16;19.57;;;19.57;;
86099;SDS011;76724;47.496;19.064;2024-02-28T02:59:50;20.07;;;20.07;;
86099;SDS011;76724;47.496;19.064;2024-02-28T03:00:24;20.67;;;20.67;;
86099;SDS011;76724;47.496;19.064;2024-02-28T03:00:59;20.83;;;20.83;;
86099;SDS011;76724;47.496;19.064;2024-02-28T03:01:33;19.77;;;19.77;;
86099;SDS011;76724;47.496;19.064;2024-02-28T03:02:07;19.93;;;19.93;;
86099;SDS011;76724;47.496;19.064;2024-02-28T03:02:42;20.27;;;20.27;;
86099;SDS011;76724;47.496;19.064;2024-02-28T03:03:16;20.73;;;20.73;;
86099;SDS011;76724;47.496;19.064;2024-02-28T03:03:50;21.03;;;21.03;;
86099;SDS011;76724;47.496;19.064;2024-02-28T03:04:26;20.73;;;20.70;;
86099;SDS011;76724;47.496;19.064;2024-02-28T03:05:00;20.87;;;20.67;;
86099;SDS011;76724;47.496;19.064;2024-02-28T03:05:35;20.70;;;20.60;;
86099;SDS011;76724;47.496;19.064;2024-02-28T03:06:09;20.83;;;20.83;;
86099;SDS011;76724;47.496;19.064;2024-02-28T03:06:44;20.07;;;20.07;;
86099;SDS011;76724;47.496;19.064;2024-02-28T03:07:18;21.57;;;21.57;;
86099;SDS011;76724;47.496;19.064;2024-02-28T03:07:52;20.90;;;20.90;;
86099;SDS011;76724;47.496;19.064;2024-02-28T03:08:27;19.83;;;19.83;;
86099;SDS011;76724;47.496;19.064;2024-02-28T03:09:01;19.83;;;19.83;;
86099;SDS011;76724;47.496;19.064;2024-02-28T03:09:37;20.67;;;20.67;;
86099;SDS011;76724;47.496;19.064;2024-02-28T03:10:11;20.70;;;20.70;;
86099;SDS011;76724;47.496;19.064;2024-02-28T03:10:46;20.40;;;20.40;;
86099;SDS011;76724;47.496;19.064;2024-02-28T03:11:20;20.53;;;20.53;;
86099;SDS011;76724;47.496;19.064;2024-02-28T03:11:54;20.63;;;20.63;;
86099;SDS011;76724;47.496;19.064;2024-02-28T03:12:29;20.63;;;20.63;;
86099;SDS011;76724;47.496;19.064;2024-02-28T03:13:03;20.67;;;20.67;;
86099;SDS011;76724;47.496;19.064;2024-02-28T03:13:40;21.97;;;21.97;;
86099;SDS011;76724;47.496;19.064;2024-02-28T03:14:14;20.93;;;20.93;;
86099;SDS011;76724;47.496;19.064;2024-02-28T03:14:49;20.70;;;20.70;;
86099;SDS011;76724;47.496;19.064;2024-02-28T03:15:23;19.80;;;19.80;;
86099;SDS011;76724;47.496;19.064;2024-02-28T03:15:57;20.57;;;20.57;;
86099;SDS011;76724;47.496;19.064;2024-02-28T03:16:32;20.43;;;20.43;;
86099;SDS011;76724;47.496;19.064;2024-02-28T03:17:06;19.77;;;19.77;;
86099;SDS011;76724;47.496;19.064;2024-02-28T03:17:40;19.67;;;19.67;;
86099;SDS011;76724;47.496;19.064;2024-02-28T03:18:16;20.03;;;20.03;;
86099;SDS011;76724;47.496;19.064;2024-02-28T03:18:50;20.80;;;20.77;;
86099;SDS011;76724;47.496;19.064;2024-02-28T03:19:25;20.03;;;20.03;;
86099;SDS011;76724;47.496;19.064;2024-02-28T03:19:59;20.20;;;20.20;;
86099;SDS011;76724;47.496;19.064;2024-02-28T03:20:33;20.43;;;20.43;;
86099;SDS011;76724;47.496;19.064;2024-02-28T03:21:08;20.17;;;20.17;;